createdAt,value
2019-05-06T00:01:57.276Z,12.37
2019-05-06T00:06:49.940Z,19.80
2019-05-06T00:11:41.874Z,25.70
2019-05-06T00:16:34.924Z,19.67
2019-05-06T00:21:27.689Z,12.70
2019-05-06T00:26:36.861Z,21.73
2019-05-06T00:31:29.167Z,19.63
2019-05-06T00:36:23.592Z,22.83
2019-05-06T00:41:24.692Z,14.53
2019-05-06T00:46:16.643Z,19.97
2019-05-06T00:51:08.656Z,23.73
2019-05-06T00:56:01.333Z,17.60
2019-05-06T01:00:54.046Z,11.60
2019-05-06T01:05:46.415Z,10.00
2019-05-06T01:10:38.900Z,13.10
2019-05-06T01:15:31.672Z,11.43
2019-05-06T01:20:24.741Z,14.07
2019-05-06T01:25:17.431Z,30.67
2019-05-06T01:30:10.800Z,24.20
2019-05-06T01:35:04.785Z,31.83
2019-05-06T01:40:16.825Z,32.03
2019-05-06T01:45:09.819Z,27.17
2019-05-06T01:50:04.388Z,27.93
2019-05-06T01:54:55.974Z,22.50
2019-05-06T01:59:47.957Z,16.23
2019-05-06T02:04:39.976Z,16.70
2019-05-06T02:09:34.255Z,22.07
2019-05-06T02:14:30.752Z,18.17
2019-05-06T02:19:24.156Z,14.70
2019-05-06T02:24:17.921Z,14.43
2019-05-06T02:29:26.716Z,13.07
2019-05-06T02:34:36.962Z,10.17
2019-05-06T02:39:29.674Z,10.83
2019-05-06T02:44:23.904Z,9.90
2019-05-06T02:49:23.554Z,9.63
2019-05-06T02:54:14.439Z,27.93
2019-05-06T02:59:07.104Z,15.37
2019-05-06T03:03:59.612Z,12.13
2019-05-06T03:08:54.069Z,17.93
2019-05-06T03:13:46.719Z,17.57
2019-05-06T03:18:39.132Z,14.70
2019-05-06T03:23:36.108Z,11.90
2019-05-06T03:28:33.075Z,19.63
2019-05-06T03:33:46.627Z,21.00
2019-05-06T03:38:18.625Z,16.97
2019-05-06T03:43:13.061Z,17.53
2019-05-06T03:48:06.658Z,18.67
2019-05-06T03:52:59.743Z,14.43
2019-05-06T03:57:54.403Z,13.87
2019-05-06T04:02:47.119Z,24.60
2019-05-06T04:07:39.880Z,13.67
2019-05-06T04:12:34.643Z,22.30
2019-05-06T04:17:34.740Z,19.93
2019-05-06T04:22:33.306Z,16.03
2019-05-06T04:27:38.779Z,17.03
2019-05-06T04:32:33.960Z,10.13
2019-05-06T04:37:25.679Z,10.00
2019-05-06T04:42:17.719Z,10.10
2019-05-06T04:47:09.732Z,9.90
2019-05-06T04:52:03.645Z,9.73
2019-05-06T04:56:56.377Z,9.80
2019-05-06T05:01:49.478Z,14.13
2019-05-06T05:06:43.266Z,9.30
2019-05-06T05:11:43.601Z,10.10
2019-05-06T05:16:54.237Z,10.17
2019-05-06T05:21:47.633Z,10.40
2019-05-06T05:26:39.994Z,13.93
2019-05-06T05:31:33.335Z,12.33
2019-05-06T05:36:25.416Z,13.77
2019-05-06T05:41:17.971Z,12.67
2019-05-06T05:46:12.487Z,17.90
2019-05-06T05:51:04.845Z,11.57
2019-05-06T05:55:57.455Z,13.57
2019-05-06T06:00:51.993Z,13.03
2019-05-06T06:05:44.054Z,13.67
2019-05-06T06:10:52.458Z,12.73
2019-05-06T06:16:02.939Z,14.47
2019-05-06T06:21:18.757Z,11.70
2019-05-06T06:26:07.115Z,11.50
2019-05-06T06:31:03.070Z,10.93
2019-05-06T06:36:05.929Z,11.20
2019-05-06T06:40:58.599Z,11.53
2019-05-06T06:45:52.982Z,13.97
2019-05-06T06:50:45.060Z,12.20
2019-05-06T06:55:38.717Z,13.10
2019-05-06T07:00:53.292Z,14.47
2019-05-06T07:06:02.575Z,12.70
2019-05-06T07:10:55.216Z,14.63
2019-05-06T07:15:47.627Z,15.10
2019-05-06T07:20:42.945Z,14.80
2019-05-06T07:25:35.341Z,15.57
2019-05-06T07:30:34.285Z,16.23
2019-05-06T07:35:37.592Z,15.63
2019-05-06T07:40:22.002Z,14.85
2019-05-06T07:45:21.892Z,15.63
2019-05-06T07:50:14.209Z,17.40
2019-05-06T07:55:07.253Z,15.03
2019-05-06T08:00:00.076Z,15.05
2019-05-06T08:04:53.172Z,16.40
2019-05-06T08:09:45.790Z,16.30
2019-05-06T08:14:43.022Z,15.75
2019-05-06T08:19:36.016Z,12.85
2019-05-06T08:24:28.713Z,11.93
2019-05-06T08:29:22.489Z,18.70
2019-05-06T08:34:14.853Z,13.65
2019-05-06T08:39:07.650Z,10.25
2019-05-06T08:44:02.398Z,5.78
2019-05-06T08:48:54.195Z,6.80
2019-05-06T08:53:48.013Z,7.30
2019-05-06T08:58:47.156Z,7.15
2019-05-06T09:03:42.310Z,6.65
2019-05-06T09:08:34.794Z,4.42
2019-05-06T09:13:27.260Z,4.90
2019-05-06T09:18:20.479Z,5.40
2019-05-06T09:23:13.200Z,4.10
2019-05-06T09:28:27.240Z,3.62
2019-05-06T09:33:22.538Z,6.20
2019-05-06T09:38:15.099Z,8.15
2019-05-06T09:43:07.489Z,7.47
2019-05-06T09:48:12.796Z,11.83
2019-05-06T09:53:04.991Z,4.15
2019-05-06T09:58:05.032Z,4.45
2019-05-06T10:02:57.788Z,2.37
2019-05-06T10:07:49.933Z,4.58
2019-05-06T10:12:42.099Z,2.85
2019-05-06T10:17:34.776Z,3.10
2019-05-06T10:22:27.323Z,2.30
2019-05-06T10:27:19.869Z,2.20
2019-05-06T10:32:25.822Z,2.17
2019-05-06T10:37:47.454Z,2.47
2019-05-06T10:42:45.316Z,2.60
2019-05-06T10:47:37.624Z,2.62
2019-05-06T10:52:33.277Z,3.15
2019-05-06T10:57:32.651Z,2.65
2019-05-06T11:02:32.295Z,2.35
2019-05-06T11:07:31.314Z,2.80
2019-05-06T11:12:18.871Z,3.02
2019-05-06T11:17:12.533Z,2.77
2019-05-06T11:22:05.049Z,2.72
2019-05-06T11:26:57.208Z,2.98
2019-05-06T11:32:02.263Z,3.67
2019-05-06T11:36:56.011Z,3.55
2019-05-06T11:42:01.666Z,3.10
2019-05-06T11:46:43.070Z,3.22
2019-05-06T11:51:35.390Z,3.27
2019-05-06T11:56:28.071Z,3.10
2019-05-06T12:01:34.178Z,3.85
2019-05-06T12:06:26.487Z,3.45
2019-05-06T12:11:18.944Z,3.37
2019-05-06T12:16:14.146Z,3.20
2019-05-06T12:21:11.258Z,3.58
2019-05-06T12:26:02.472Z,4.08
2019-05-06T12:30:56.631Z,4.30
2019-05-06T12:35:48.496Z,4.22
2019-05-06T12:40:42.879Z,3.80
2019-05-06T12:45:37.070Z,4.92
2019-05-06T12:50:29.492Z,5.65
2019-05-06T12:55:25.301Z,4.47
2019-05-06T13:00:19.036Z,7.05
2019-05-06T13:05:12.622Z,5.50
2019-05-06T13:10:06.844Z,5.10
2019-05-06T13:14:59.305Z,3.60
2019-05-06T13:19:52.369Z,3.60
2019-05-06T13:24:45.166Z,3.65
2019-05-06T13:29:38.077Z,4.10
2019-05-06T13:34:30.409Z,4.25
2019-05-06T13:39:24.032Z,4.25
2019-05-06T13:44:17.440Z,4.10
2019-05-06T13:49:13.350Z,4.45
2019-05-06T13:54:05.754Z,3.52
2019-05-06T13:58:58.335Z,3.87
2019-05-06T14:03:52.437Z,3.80
2019-05-06T14:08:44.686Z,4.10
2019-05-06T14:13:36.902Z,3.62
2019-05-06T14:18:29.393Z,4.08
2019-05-06T14:23:22.323Z,3.77
2019-05-06T14:28:25.401Z,3.98
2019-05-06T14:33:23.400Z,4.00
2019-05-06T14:38:14.995Z,4.12
2019-05-06T14:43:07.580Z,4.20
2019-05-06T14:48:00.000Z,3.98
2019-05-06T14:52:52.406Z,5.45
2019-05-06T14:57:44.813Z,5.03
2019-05-06T15:02:37.718Z,6.15
2019-05-06T15:07:29.693Z,4.70
2019-05-06T15:12:23.059Z,6.87
2019-05-06T15:17:15.932Z,6.83
2019-05-06T15:22:08.539Z,5.87
2019-05-06T15:27:02.737Z,4.97
2019-05-06T15:32:12.997Z,6.40
2019-05-06T15:37:24.942Z,6.10
2019-05-06T15:42:17.749Z,6.60
2019-05-06T15:47:13.193Z,6.20
2019-05-06T15:52:05.433Z,7.22
2019-05-06T15:56:57.611Z,9.45
2019-05-06T16:01:49.908Z,6.90
2019-05-06T16:06:44.743Z,6.87
2019-05-06T16:11:36.206Z,6.67
2019-05-06T16:16:28.753Z,5.22
2019-05-06T16:21:23.014Z,6.95
2019-05-06T16:26:14.997Z,6.55
2019-05-06T16:31:07.304Z,5.83
2019-05-06T16:36:00.066Z,6.15
2019-05-06T16:41:02.150Z,6.72
2019-05-06T16:45:47.370Z,5.53
2019-05-06T16:50:42.792Z,6.17
2019-05-06T16:55:55.457Z,7.20
2019-05-06T17:00:48.181Z,5.85
2019-05-06T17:05:42.448Z,5.83
2019-05-06T17:10:34.913Z,5.87
2019-05-06T17:15:27.763Z,6.33
2019-05-06T17:20:22.650Z,6.92
2019-05-06T17:25:14.843Z,7.40
2019-05-06T17:30:28.747Z,8.18
2019-05-06T17:35:22.847Z,8.13
2019-05-06T17:40:20.129Z,8.55
2019-05-06T17:45:32.228Z,8.65
2019-05-06T17:50:25.544Z,9.10
2019-05-06T17:55:17.893Z,8.60
2019-05-06T18:00:10.661Z,9.80
2019-05-06T18:05:03.021Z,10.08
2019-05-06T18:09:55.331Z,12.10
2019-05-06T18:14:47.888Z,11.55
2019-05-06T18:19:40.586Z,11.50
2019-05-06T18:24:33.449Z,16.48
2019-05-06T18:29:25.877Z,10.03
2019-05-06T18:34:18.490Z,10.45
2019-05-06T18:39:12.575Z,7.03
2019-05-06T18:44:05.219Z,6.75
2019-05-06T18:48:57.358Z,6.90
2019-05-06T18:53:52.181Z,10.90
2019-05-06T18:58:43.828Z,10.58
2019-05-06T19:03:40.476Z,11.20
2019-05-06T19:08:42.051Z,10.55
2019-05-06T19:13:34.094Z,12.98
2019-05-06T19:18:25.874Z,9.80
2019-05-06T19:23:18.051Z,10.53
2019-05-06T19:28:12.109Z,20.72
2019-05-06T19:33:06.877Z,11.50
2019-05-06T19:37:58.145Z,11.68
2019-05-06T19:42:53.111Z,10.83
2019-05-06T19:47:44.567Z,9.75
2019-05-06T19:52:37.202Z,10.50
2019-05-06T19:57:32.223Z,9.23
2019-05-06T20:02:25.831Z,9.95
2019-05-06T20:07:27.078Z,9.38
2019-05-06T20:12:23.033Z,10.98
2019-05-06T20:17:15.358Z,9.00
2019-05-06T20:22:07.665Z,6.60
2019-05-06T20:27:02.219Z,5.90
2019-05-06T20:31:54.196Z,6.50
2019-05-06T20:36:46.596Z,6.90
2019-05-06T20:41:38.981Z,8.27
2019-05-06T20:46:32.308Z,8.38
2019-05-06T20:51:24.349Z,10.50
2019-05-06T20:56:16.743Z,9.60
2019-05-06T21:01:08.888Z,17.30
2019-05-06T21:06:05.540Z,17.27
2019-05-06T21:10:58.280Z,10.20
2019-05-06T21:15:50.364Z,9.70
2019-05-06T21:20:43.700Z,10.47
2019-05-06T21:25:36.397Z,13.57
2019-05-06T21:30:28.650Z,11.77
2019-05-06T21:35:22.213Z,11.03
2019-05-06T21:40:15.290Z,10.27
2019-05-06T21:45:07.613Z,9.67
2019-05-06T21:50:01.186Z,8.73
2019-05-06T21:54:53.423Z,8.50
2019-05-06T21:59:46.170Z,8.33
2019-05-06T22:04:38.875Z,11.77
2019-05-06T22:09:32.288Z,10.10
2019-05-06T22:14:24.710Z,10.43
2019-05-06T22:19:17.123Z,9.40
2019-05-06T22:24:11.951Z,10.80
2019-05-06T22:29:03.891Z,15.20
2019-05-06T22:33:56.392Z,14.90
2019-05-06T22:38:48.688Z,20.20
2019-05-06T22:43:42.383Z,35.80
2019-05-06T22:48:35.273Z,17.37
2019-05-06T22:53:27.784Z,19.20
2019-05-06T22:58:20.116Z,19.43
2019-05-06T23:03:14.074Z,16.50
2019-05-06T23:08:06.725Z,14.37
2019-05-06T23:12:59.113Z,16.17
2019-05-06T23:17:52.687Z,13.87
2019-05-06T23:22:45.230Z,18.97
2019-05-06T23:27:37.264Z,13.27
2019-05-06T23:32:30.162Z,14.27
2019-05-06T23:37:23.059Z,12.70
2019-05-06T23:42:53.394Z,14.77
2019-05-06T23:48:22.854Z,9.57
2019-05-06T23:53:52.286Z,10.87
2019-05-06T23:58:44.658Z,11.10
